Time;durP1;ratioP1;P1;durP2;ratioP2;P2;SDS_P1;SDS_P2;PMS_P1;PMS_P2;Temp;Humidity;BMP_temperature;BMP_pressure;BME280_temperature;BME280_humidity;BME280_pressure;Samples;Min_cycle;Max_cycle;Signal;HPM_P1;HPM_P2
2023/05/22 00:03:17;;;;;;;;;;;23.90;37.00;;;23.08;37.29;101416.31;12262029;19;19918;-85
2023/05/22 00:07:18;;;;;;;;;;;23.90;37.00;;;22.99;37.22;101406.56;12267600;19;19922;-85
2023/05/22 00:11:21;;;;;;;;;;;23.80;37.10;;;22.88;37.52;101400.44;12267404;19;19917;-85
2023/05/22 00:15:22;;;;;;;;;;;23.70;37.10;;;23.01;37.63;101415.22;12259515;19;19922;-85
2023/05/22 00:19:24;;;;;;;;;;;23.70;37.10;;;22.93;37.71;101410.63;12263912;19;19919;-85
2023/05/22 00:23:27;;;;;;;;;;;23.70;37.10;;;22.82;37.65;101405.50;12267797;19;19939;-85
2023/05/22 00:27:28;;;;;;;;;;;23.60;37.10;;;22.83;37.53;101412.50;12264064;19;19914;-85
2023/05/22 00:31:29;;;;;;;;;;;23.60;37.10;;;22.75;37.54;101402.59;12266226;19;19907;-85
2023/05/22 00:35:32;;;;;;;;;;;23.50;37.10;;;22.72;37.45;101401.06;12261226;19;20329;-85
2023/05/22 00:39:34;;;;;;;;;;;23.50;37.10;;;22.71;37.30;101404.72;12258364;19;20326;-85
2023/05/22 00:43:38;;;;;;;;;;;23.40;37.10;;;22.44;37.73;101367.41;12262980;19;19931;-85
2023/05/22 00:47:40;;;;;;;;;;;23.40;37.20;;;22.56;37.70;101400.03;12261445;19;19927;-85
2023/05/22 00:51:41;;;;;;;;;;;23.30;37.10;;;22.48;37.60;101388.28;12264471;19;19935;-85
2023/05/22 00:55:43;;;;;;;;;;;23.30;37.20;;;22.26;37.59;101364.69;12259950;19;19914;-85
2023/05/22 00:59:45;;;;;;;;;;;23.20;37.20;;;22.33;37.45;101384.38;12257939;19;19931;-85
2023/05/22 01:03:47;;;;;;;;;;;23.10;37.20;;;22.16;37.49;101362.00;12260231;19;19911;-85
2023/05/22 01:07:49;;;;;;;;;;;23.00;37.20;;;22.24;37.96;101379.94;12261704;19;19923;-85
2023/05/22 01:11:54;;;;;;;;;;;23.00;37.30;;;22.20;37.54;101386.56;12260718;19;19918;-85
2023/05/22 01:16:07;;;;;;;;;;;22.90;37.30;;;21.99;37.50;101371.59;12256028;19;19907;-85
2023/05/22 01:20:33;;;;;;;;;;;22.80;37.30;;;22.10;37.90;101394.53;12258854;19;20325;-85
2023/05/22 01:25:10;;;;;;;;;;;22.80;37.30;;;22.04;37.78;101392.44;12260665;19;20307;-85
2023/05/22 01:29:57;;;;;;;;;;;22.70;37.30;;;21.95;37.94;101382.66;12256711;19;19922;-85
2023/05/22 01:34:01;;;;;;;;;;;22.70;37.40;;;21.84;37.79;101378.31;12260404;19;19915;-85
2023/05/22 01:38:03;;;;;;;;;;;22.60;37.40;;;21.75;37.66;101379.19;12259111;19;20261;-85
2023/05/22 01:42:05;;;;;;;;;;;22.50;37.40;;;21.68;37.99;101373.56;12261289;19;19926;-85
2023/05/22 01:46:08;;;;;;;;;;;22.40;37.80;;;21.53;37.65;101353.75;12258087;19;19974;-85
2023/05/22 01:50:10;;;;;;;;;;;22.40;37.50;;;21.38;37.96;101346.16;12260935;19;19925;-85
2023/05/22 01:54:36;;;;;;;;;;;22.30;37.50;;;21.40;37.86;101362.81;12257795;19;20326;-85
2023/05/22 01:58:51;;;;;;;;;;;22.20;37.50;;;21.40;37.91;101383.25;12259210;19;19919;-85
2023/05/22 02:03:04;;;;;;;;;;;22.10;37.60;;;21.27;37.76;101378.16;12259956;19;19946;-85
2023/05/22 02:07:06;;;;;;;;;;;22.00;37.60;;;21.17;37.92;101375.50;12255760;19;19914;-85
2023/05/22 02:11:08;;;;;;;;;;;21.90;37.50;;;20.91;37.90;101343.31;12258270;19;20304;-85
2023/05/22 02:15:10;;;;;;;;;;;21.80;37.50;;;20.93;38.07;101361.78;12256101;19;19929;-85
2023/05/22 02:19:14;;;;;;;;;;;21.80;37.60;;;20.76;38.27;101340.19;12255635;19;19982;-85
2023/05/22 02:23:16;;;;;;;;;;;21.70;37.60;;;20.78;38.28;101351.50;12255773;19;19948;-85
2023/05/22 02:27:17;;;;;;;;;;;21.70;37.60;;;20.82;38.04;101370.69;12254534;19;19911;-85
2023/05/22 02:31:19;;;;;;;;;;;21.60;37.60;;;20.83;38.30;101377.66;12257076;19;19917;-84
2023/05/22 02:35:21;;;;;;;;;;;21.50;37.60;;;20.77;37.91;101364.94;12255585;19;19911;-84
2023/05/22 02:39:23;;;;;;;;;;;21.50;37.70;;;20.70;38.27;101353.19;12253728;19;19931;-85
2023/05/22 02:43:24;;;;;;;;;;;21.40;37.70;;;20.64;38.42;101362.53;12254154;19;19939;-84
2023/05/22 02:47:26;;;;;;;;;;;21.40;37.80;;;20.60;38.21;101371.72;12254504;19;20004;-85
2023/05/22 02:51:27;;;;;;;;;;;21.30;37.80;;;20.50;38.32;101354.91;12253713;19;19974;-85
2023/05/22 02:55:29;;;;;;;;;;;21.30;37.80;;;20.50;38.24;101365.50;12253160;19;19907;-85
2023/05/22 02:59:30;;;;;;;;;;;21.30;37.90;;;20.46;38.27;101359.63;12252994;19;20380;-85
2023/05/22 03:03:32;;;;;;;;;;;21.20;37.80;;;20.45;38.29;101367.72;12253549;19;19954;-84
2023/05/22 03:07:34;;;;;;;;;;;21.20;37.90;;;20.36;38.07;101363.19;12255664;19;19914;-85
2023/05/22 03:11:36;;;;;;;;;;;21.10;37.90;;;20.39;38.33;101363.78;12253983;19;19915;-85
2023/05/22 03:15:37;;;;;;;;;;;21.10;37.90;;;20.24;38.45;101338.59;12253201;19;19923;-84
2023/05/22 03:19:46;;;;;;;;;;;21.10;38.00;;;20.31;38.48;101358.31;12250245;19;19914;-84
2023/05/22 03:23:48;;;;;;;;;;;21.10;38.00;;;20.10;38.38;101324.69;12253241;19;19919;-85
2023/05/22 03:27:49;;;;;;;;;;;21.00;38.00;;;20.29;38.56;101353.13;12253018;19;19923;-86
2023/05/22 03:31:53;;;;;;;;;;;21.00;38.10;;;20.23;38.63;101353.66;12249330;19;20260;-86
2023/05/22 03:35:55;;;;;;;;;;;21.00;38.10;;;20.09;38.58;101340.72;12254442;19;19929;-86
2023/05/22 03:39:56;;;;;;;;;;;20.90;38.20;;;19.91;38.57;101311.34;12262073;19;19930;-86
2023/05/22 03:44:03;;;;;;;;;;;20.90;38.20;;;20.08;38.55;101352.31;12266721;19;19919;-86
2023/05/22 03:48:05;;;;;;;;;;;20.80;38.20;;;20.05;38.38;101355.22;12263880;19;20267;-86
2023/05/22 03:52:10;;;;;;;;;;;20.80;38.20;;;20.03;38.60;101357.16;12265120;19;19915;-86
2023/05/22 03:56:12;;;;;;;;;;;20.80;38.30;;;19.88;38.72;101333.66;12261272;19;19993;-86
2023/05/22 04:00:15;;;;;;;;;;;20.70;38.30;;;19.73;38.88;101312.91;12269332;19;19918;-87
2023/05/22 04:04:17;;;;;;;;;;;20.70;38.30;;;19.91;38.42;101355.56;12266751;19;19939;-86
2023/05/22 04:08:19;;;;;;;;;;;20.70;38.40;;;19.79;38.83;101349.47;12267129;19;19923;-87
2023/05/22 04:12:21;;;;;;;;;;;20.60;38.50;;;19.74;38.74;101344.59;12265046;19;19931;-86
2023/05/22 04:16:24;;;;;;;;;;;20.60;38.50;;;19.74;38.90;101347.25;12260762;19;19931;-86
2023/05/22 04:20:26;;;;;;;;;;;20.50;38.60;;;19.70;38.95;101345.81;12263241;19;19918;-86
2023/05/22 04:24:27;;;;;;;;;;;20.40;38.70;;;19.67;39.10;101351.34;12263102;19;19923;-86
2023/05/22 04:28:29;;;;;;;;;;;20.40;38.70;;;19.66;38.98;101350.53;12264211;19;19978;-86
2023/05/22 04:32:30;;;;;;;;;;;20.40;38.70;;;19.63;38.86;101339.28;12254337;19;20374;-85
2023/05/22 04:36:32;;;;;;;;;;;20.40;38.80;;;19.41;39.21;101308.47;12255983;19;19918;-85
2023/05/22 04:40:36;;;;;;;;;;;20.40;39.00;;;19.56;39.21;101336.31;12259087;19;19955;-86
2023/05/22 04:44:37;;;;;;;;;;;20.40;39.00;;;19.57;39.15;101331.88;12257982;19;19963;-86
2023/05/22 04:48:40;;;;;;;;;;;20.40;39.50;;;19.63;39.11;101345.47;12256079;19;20396;-85
2023/05/22 04:52:42;;;;;;;;;;;20.50;40.00;;;19.69;39.40;101353.91;12263345;19;19919;-86
2023/05/22 04:56:44;;;;;;;;;;;20.50;39.90;;;19.71;39.09;101349.28;12256770;19;19923;-86
2023/05/22 05:00:46;;;;;;;;;;;20.50;39.30;;;19.71;39.35;101339.53;12262613;19;19919;-86
2023/05/22 05:04:47;;;;;;;;;;;20.60;39.30;;;19.82;39.63;101347.44;12254735;19;19923;-86
2023/05/22 05:08:51;;;;;;;;;;;20.60;39.50;;;19.63;39.21;101300.41;12258586;19;19933;-86
2023/05/22 05:12:53;;;;;;;;;;;20.70;39.90;;;19.87;39.63;101331.13;12258845;19;19925;-86
2023/05/22 05:16:55;;;;;;;;;;;20.80;39.70;;;19.98;39.47;101344.31;12256226;19;19915;-86
2023/05/22 05:20:57;;;;;;;;;;;20.90;39.50;;;20.03;39.33;101349.22;12258679;19;19926;-86
2023/05/22 05:24:59;;;;;;;;;;;20.90;40.50;;;19.95;39.72;101333.13;12256775;19;20238;-86
2023/05/22 05:29:01;;;;;;;;;;;20.90;39.50;;;20.00;39.39;101326.44;12261126;19;19923;-86
2023/05/22 05:33:12;;;;;;;;;;;21.00;39.70;;;20.13;39.59;101339.50;12258755;19;19923;-86
2023/05/22 05:37:33;;;;;;;;;;;21.00;39.70;;;20.12;39.65;101332.53;12261650;19;19925;-86
2023/05/22 05:41:38;;;;;;;;;;;21.10;39.60;;;20.06;39.75;101306.53;12262552;19;19982;-86
2023/05/22 05:45:43;;;;;;;;;;;21.20;39.30;;;20.36;39.79;101344.63;12258899;19;20361;-86
2023/05/22 05:49:45;;;;;;;;;;;21.30;40.00;;;20.21;39.44;101323.78;12260470;19;20442;-86
2023/05/22 05:53:49;;;;;;;;;;;21.40;40.30;;;20.50;39.64;101354.91;12260098;19;20326;-87
2023/05/22 05:57:52;;;;;;;;;;;21.40;39.70;;;20.52;39.76;101342.31;12255383;19;19923;-87
2023/05/22 06:02:02;;;;;;;;;;;21.50;40.30;;;20.57;39.94;101344.59;12257536;19;20070;-86
2023/05/22 06:06:07;;;;;;;;;;;21.60;40.00;;;20.67;39.49;101346.31;12253500;19;19918;-85
2023/05/22 06:10:28;;;;;;;;;;;21.60;39.80;;;20.75;40.03;101349.13;12257976;19;19923;-87
2023/05/22 06:14:34;;;;;;;;;;;21.70;39.70;;;20.86;39.77;101356.16;12253541;19;19922;-86
2023/05/22 06:18:36;;;;;;;;;;;21.80;40.40;;;20.94;39.87;101347.50;12253967;19;20037;-86
2023/05/22 06:22:39;;;;;;;;;;;21.90;40.20;;;21.01;39.95;101348.66;12258881;19;19970;-86
2023/05/22 06:26:40;;;;;;;;;;;22.00;39.60;;;21.09;39.88;101339.97;12254967;19;19957;-86
2023/05/22 06:30:42;;;;;;;;;;;22.10;40.00;;;21.28;39.87;101355.09;12257161;19;19928;-87
2023/05/22 06:34:48;;;;;;;;;;;22.20;40.10;;;21.33;39.78;101351.06;12255722;19;19918;-87
2023/05/22 06:38:53;;;;;;;;;;;22.30;40.30;;;21.35;39.97;101337.63;12256523;19;20285;-87
2023/05/22 06:43:14;;;;;;;;;;;22.40;40.20;;;21.39;40.03;101339.06;12256128;19;19915;-86
2023/05/22 06:47:24;;;;;;;;;;;22.40;39.90;;;21.55;39.89;101352.63;12259257;19;19914;-87
2023/05/22 06:51:26;;;;;;;;;;;22.50;40.20;;;21.55;39.98;101335.81;12261690;19;19932;-87
2023/05/22 06:55:47;;;;;;;;;;;22.60;39.80;;;21.72;40.02;101339.59;12259083;19;19915;-87
2023/05/22 07:00:11;;;;;;;;;;;22.70;40.30;;;21.91;39.85;101362.66;12257346;19;19926;-87
2023/05/22 07:04:48;;;;;;;;;;;22.80;40.40;;;22.01;40.03;101344.84;12254358;19;19910;-88
2023/05/22 07:09:00;;;;;;;;;;;22.90;40.10;;;22.04;40.27;101337.41;12258956;19;19907;-87
2023/05/22 07:13:04;;;;;;;;;;;23.10;40.20;;;22.19;40.17;101348.44;12258871;19;19922;-86
2023/05/22 07:17:07;;;;;;;;;;;23.20;40.00;;;22.31;39.97;101333.16;12255442;19;19911;-87
2023/05/22 07:21:15;;;;;;;;;;;23.30;40.10;;;22.46;39.87;101342.31;12259578;19;20330;-88
2023/05/22 07:25:17;;;;;;;;;;;23.40;40.30;;;22.54;40.14;101329.09;12256341;19;19914;-87
2023/05/22 07:29:20;;;;;;;;;;;23.50;39.90;;;22.67;39.85;101336.75;12256111;19;20238;-87
2023/05/22 07:33:24;;;;;;;;;;;23.70;40.10;;;22.84;40.30;101329.78;12260092;19;19944;-87
2023/05/22 07:37:28;;;;;;;;;;;23.80;40.00;;;22.99;39.92;101324.00;12258818;19;20300;-88
2023/05/22 07:41:30;;;;;;;;;;;23.90;39.70;;;23.18;39.87;101321.19;12257516;19;19923;-87
2023/05/22 07:45:32;;;;;;;;;;;24.20;39.60;;;23.38;40.16;101329.84;12250486;19;19953;-87
2023/05/22 07:49:38;;;;;;;;;;;24.30;39.60;;;23.45;40.07;101312.25;12251899;19;19915;-87
2023/05/22 07:53:40;;;;;;;;;;;24.50;39.50;;;23.57;40.00;101311.03;12250389;19;19919;-87
2023/05/22 07:57:42;;;;;;;;;;;24.70;39.50;;;23.80;40.12;101331.88;12248820;19;19914;-88
2023/05/22 08:01:55;;;;;;;;;;;24.80;39.20;;;23.95;40.09;101324.97;12253033;19;19943;-87
2023/05/22 08:28:12;;;;;;;;;;;25.90;38.60;;;25.11;39.98;101327.06;12255724;19;19919;-87
2023/05/22 08:37:25;;;;;;;;;;;26.30;38.60;;;25.04;39.33;101249.41;12257441;19;19907;-88
2023/05/22 08:41:49;;;;;;;;;;;26.50;38.40;;;25.53;39.31;101288.69;12261595;19;20269;-87
2023/05/22 08:45:58;;;;;;;;;;;26.60;38.40;;;25.66;39.66;101290.84;12258349;19;19922;-87
2023/05/22 08:50:06;;;;;;;;;;;26.80;38.60;;;25.57;39.34;101236.50;12261720;19;19919;-88
2023/05/22 08:54:14;;;;;;;;;;;27.10;38.40;;;26.18;39.66;101299.25;12260220;19;19983;-88
2023/05/22 08:58:16;;;;;;;;;;;27.20;38.10;;;26.07;39.66;101253.31;12258322;19;19919;-87
2023/05/22 09:02:43;;;;;;;;;;;;;;;;;;;;;
2023/05/22 09:06:51;;;;;;;;;;;27.50;37.70;;;26.33;39.00;101240.47;12250652;19;19970;-88
2023/05/22 09:10:55;;;;;;;;;;;27.70;37.60;;;26.75;38.87;101283.94;12257765;19;20250;-88
2023/05/22 09:15:02;;;;;;;;;;;27.80;37.80;;;26.77;38.95;101274.72;12253084;19;19945;-86
2023/05/22 09:19:03;;;;;;;;;;;27.90;37.50;;;26.83;38.86;101260.59;12251046;19;20367;-85
2023/05/22 09:23:13;;;;;;;;;;;27.90;37.30;;;26.96;38.63;101273.41;12258042;19;20239;-86
2023/05/22 09:27:14;;;;;;;;;;;28.00;36.80;;;26.75;38.86;101209.75;12250481;19;19923;-84
2023/05/22 09:31:16;;;;;;;;;;;28.10;37.30;;;27.12;38.84;101257.19;12259101;19;19919;-84
2023/05/22 09:35:19;;;;;;;;;;;28.20;36.60;;;27.22;38.59;101265.03;12252174;19;19948;-86
2023/05/22 09:39:21;;;;;;;;;;;28.20;37.30;;;27.17;38.57;101254.00;12250533;19;19923;-84
2023/05/22 09:43:26;;;;;;;;;;;28.30;36.70;;;27.30;38.55;101256.06;12251757;19;19927;-85
2023/05/22 09:47:27;;;;;;;;;;;28.30;36.40;;;27.35;38.70;101259.91;12254212;19;19919;-85
2023/05/22 09:51:29;;;;;;;;;;;28.40;36.70;;;27.32;38.34;101244.13;12253486;19;20498;-85
2023/05/22 09:55:32;;;;;;;;;;;28.40;36.00;;;27.43;38.22;101244.72;12248931;19;19910;-84
2023/05/22 09:59:37;;;;;;;;;;;28.50;36.00;;;27.47;38.29;101246.03;12249856;19;19955;-84
2023/05/22 10:03:39;;;;;;;;;;;28.50;34.60;;;27.54;38.25;101260.34;12251989;19;20330;-84
2023/05/22 10:07:46;;;;;;;;;;;28.50;36.50;;;27.56;37.72;101247.59;12250525;19;19919;-84
2023/05/22 10:11:52;;;;;;;;;;;28.60;36.30;;;27.46;38.23;101230.94;12253966;19;19979;-85
2023/05/22 10:15:53;;;;;;;;;;;28.60;36.30;;;27.42;37.87;101216.22;12250275;19;20000;-84
2023/05/22 10:19:56;;;;;;;;;;;28.60;35.30;;;27.60;38.03;101240.88;12249173;19;19923;-85
2023/05/22 10:23:59;;;;;;;;;;;28.60;35.20;;;27.69;37.53;101244.28;12250213;19;20313;-86
2023/05/22 10:28:02;;;;;;;;;;;28.60;35.20;;;27.71;37.38;101237.72;12252956;19;20543;-85
2023/05/22 10:32:13;;;;;;;;;;;28.70;35.20;;;27.79;37.59;101220.69;12251711;19;19918;-85
2023/05/22 10:37:01;;;;;;;;;;;28.80;35.80;;;27.96;37.44;101226.72;12249510;19;20275;-85
2023/05/22 10:41:03;;;;;;;;;;;28.80;36.20;;;28.07;37.24;101228.91;12250914;19;20384;-84
2023/05/22 10:45:06;;;;;;;;;;;29.00;35.60;;;28.06;37.17;101207.63;12253767;19;19932;-85
2023/05/22 10:49:07;;;;;;;;;;;29.00;33.50;;;28.00;36.64;101206.50;12256070;19;19974;-86
2023/05/22 10:53:25;;;;;;;;;;;29.00;33.80;;;28.17;37.01;101216.03;12252928;19;19910;-85
2023/05/22 10:57:33;;;;;;;;;;;29.00;35.50;;;28.17;37.01;101201.78;12252267;19;19945;-85
2023/05/22 11:01:36;;;;;;;;;;;29.10;33.70;;;28.20;36.53;101201.41;12249618;19;19930;-85
2023/05/22 11:05:52;;;;;;;;;;;29.10;34.20;;;28.22;36.60;101196.69;12248174;19;20042;-84
2023/05/22 11:09:59;;;;;;;;;;;29.10;32.40;;;28.29;36.48;101196.75;12253149;19;19986;-84
2023/05/22 11:14:03;;;;;;;;;;;29.20;34.80;;;28.37;36.44;101199.31;12253255;19;19911;-84
2023/05/22 11:18:05;;;;;;;;;;;29.20;34.10;;;28.40;36.71;101194.38;12252029;19;20351;-83
2023/05/22 11:22:07;;;;;;;;;;;29.30;34.80;;;28.48;36.48;101196.16;12252101;19;19941;-84
2023/05/22 11:26:23;;;;;;;;;;;29.30;34.10;;;28.58;36.52;101196.66;12247886;19;20412;-84
2023/05/22 11:30:25;;;;;;;;;;;29.40;34.90;;;28.65;35.92;101178.75;12252459;19;19970;-85
2023/05/22 11:34:28;;;;;;;;;;;29.50;33.30;;;28.66;36.06;101183.09;12246469;19;19983;-85
2023/05/22 11:38:30;;;;;;;;;;;29.60;32.80;;;28.58;36.08;101175.16;12247701;19;19915;-85
2023/05/22 11:42:32;;;;;;;;;;;29.60;33.50;;;28.65;35.91;101186.81;12248628;19;20250;-85
2023/05/22 11:46:33;;;;;;;;;;;29.60;32.40;;;28.62;35.72;101175.59;12247669;19;19936;-85
2023/05/22 11:50:35;;;;;;;;;;;29.50;33.00;;;28.56;35.69;101165.63;12247126;19;19930;-84
2023/05/22 11:54:37;;;;;;;;;;;29.50;33.30;;;28.62;35.48;101175.59;12247725;19;19950;-85
2023/05/22 11:58:39;;;;;;;;;;;29.50;32.00;;;28.40;35.55;101139.81;12251510;19;19919;-85
2023/05/22 12:02:46;;;;;;;;;;;29.50;32.00;;;28.54;35.43;101165.81;12261434;19;19915;-84
2023/05/22 12:06:48;;;;;;;;;;;29.40;31.60;;;28.52;35.52;101167.06;12254695;19;19918;-84
2023/05/22 12:10:50;;;;;;;;;;;29.40;33.10;;;28.49;35.28;101154.84;12260901;19;19943;-85
2023/05/22 12:14:52;;;;;;;;;;;29.30;32.30;;;28.36;34.66;101138.56;12258229;19;19911;-85
2023/05/22 12:18:53;;;;;;;;;;;29.30;32.20;;;28.40;34.79;101155.94;12260182;19;19936;-85
2023/05/22 12:22:55;;;;;;;;;;;29.30;33.80;;;28.49;34.91;101154.84;12261371;19;19914;-84
2023/05/22 12:26:56;;;;;;;;;;;29.30;34.00;;;28.50;34.97;101145.75;12257115;19;19990;-85
2023/05/22 12:30:58;;;;;;;;;;;29.30;32.50;;;28.58;34.84;101148.28;12262624;19;19907;-85
2023/05/22 12:35:00;;;;;;;;;;;29.30;33.80;;;28.59;34.84;101136.50;12256890;19;19926;-85
2023/05/22 12:39:05;;;;;;;;;;;29.40;33.40;;;28.65;34.48;101137.59;12258919;19;20287;-84
2023/05/22 12:43:07;;;;;;;;;;;29.50;32.70;;;28.72;35.00;101143.84;12259547;19;19926;-85
2023/05/22 12:47:09;;;;;;;;;;;29.50;31.90;;;28.76;34.60;101137.09;12252945;19;19923;-85
2023/05/22 12:51:10;;;;;;;;;;;29.60;34.00;;;28.69;34.10;101138.88;12262183;19;20010;-84
2023/05/22 12:55:12;;;;;;;;;;;29.60;32.40;;;28.72;34.24;101153.78;12256169;19;19915;-85
2023/05/22 12:59:14;;;;;;;;;;;29.50;33.00;;;28.68;34.63;101138.06;12258120;19;19922;-85
2023/05/22 13:03:16;;;;;;;;;;;29.50;32.90;;;28.71;33.86;101125.25;12258068;19;19930;-84
2023/05/22 13:07:17;;;;;;;;;;;29.50;33.70;;;28.73;34.27;101121.31;12254561;19;19919;-84
2023/05/22 13:11:22;;;;;;;;;;;29.60;32.80;;;28.81;33.98;101133.78;12258854;19;20370;-85
2023/05/22 13:15:23;;;;;;;;;;;29.60;29.90;;;28.84;33.50;101130.72;12256604;19;19915;-85
2023/05/22 13:19:25;;;;;;;;;;;29.60;30.30;;;28.81;33.70;101121.22;12253733;19;20355;-84
2023/05/22 13:23:27;;;;;;;;;;;29.60;32.20;;;28.78;33.82;101107.31;12257818;19;19915;-84
2023/05/22 13:27:28;;;;;;;;;;;29.70;33.00;;;28.95;33.82;101116.75;12258047;19;19940;-85
2023/05/22 13:31:35;;;;;;;;;;;29.70;31.00;;;29.07;33.61;101119.75;12258785;19;19942;-84
2023/05/22 13:35:37;;;;;;;;;;;29.80;31.50;;;29.09;33.74;101121.22;12252022;19;19923;-84
2023/05/22 13:39:39;;;;;;;;;;;29.80;31.70;;;29.15;33.59;101121.47;12253706;19;19910;-83
2023/05/22 13:43:41;;;;;;;;;;;29.90;33.00;;;29.17;33.37;101114.03;12254845;19;19918;-84
2023/05/22 13:47:43;;;;;;;;;;;29.90;32.40;;;29.17;33.18;101100.56;12256974;19;19918;-84
2023/05/22 13:51:44;;;;;;;;;;;30.00;31.90;;;29.09;33.29;101088.94;12257535;19;19918;-84
2023/05/22 13:55:46;;;;;;;;;;;30.00;31.20;;;29.22;33.24;101104.34;12252972;19;19918;-84
2023/05/22 13:59:48;;;;;;;;;;;30.00;32.00;;;29.17;33.56;101084.44;12254297;19;20362;-85
2023/05/22 14:03:50;;;;;;;;;;;30.00;32.40;;;29.30;33.23;101087.16;12255750;19;19907;-84
2023/05/22 14:07:51;;;;;;;;;;;30.00;31.50;;;29.31;33.20;101081.59;12257502;19;20310;-84
2023/05/22 14:11:53;;;;;;;;;;;30.10;31.10;;;29.34;33.09;101073.13;12257588;19;19930;-84
2023/05/22 14:15:54;;;;;;;;;;;30.10;31.70;;;29.37;33.06;101071.91;12255278;19;19922;-84
2023/05/22 14:19:57;;;;;;;;;;;30.20;31.70;;;29.40;32.89;101071.50;12253073;19;19919;-85
2023/05/22 14:24:01;;;;;;;;;;;30.20;31.30;;;29.46;32.72;101075.25;12257838;19;19915;-83
2023/05/22 14:28:02;;;;;;;;;;;30.20;30.40;;;29.45;32.58;101063.66;12259000;19;19923;-84
2023/05/22 14:32:04;;;;;;;;;;;30.20;29.60;;;29.41;32.70;101062.41;12256484;19;19921;-86
2023/05/22 14:36:06;;;;;;;;;;;30.30;30.60;;;29.49;32.63;101058.72;12251814;19;19919;-85
2023/05/22 14:40:08;;;;;;;;;;;30.20;31.80;;;29.41;32.61;101045.41;12250668;19;20263;-85
2023/05/22 14:44:09;;;;;;;;;;;30.20;30.90;;;29.51;32.54;101053.94;12254175;19;19923;-85
2023/05/22 14:48:11;;;;;;;;;;;30.30;31.70;;;29.48;32.34;101044.41;12257154;19;20323;-84
2023/05/22 14:52:13;;;;;;;;;;;30.30;31.60;;;29.63;32.83;101051.50;12255311;19;19921;-84
2023/05/22 14:56:15;;;;;;;;;;;30.40;31.40;;;29.65;32.59;101044.06;12250070;19;19911;-85
2023/05/22 15:00:17;;;;;;;;;;;30.40;31.30;;;29.71;32.63;101051.38;12253625;19;19918;-85
2023/05/22 15:04:18;;;;;;;;;;;30.40;30.80;;;29.63;32.12;101043.44;12252706;19;19978;-86
2023/05/22 15:08:20;;;;;;;;;;;30.40;31.70;;;29.64;32.27;101035.19;12252991;19;19959;-85
2023/05/22 15:12:22;;;;;;;;;;;30.40;30.40;;;29.65;32.41;101025.22;12249999;19;19914;-83
2023/05/22 15:16:24;;;;;;;;;;;30.40;31.60;;;29.70;31.89;101023.59;12251059;19;19923;-85
2023/05/22 15:20:26;;;;;;;;;;;30.40;30.60;;;29.53;32.39;100989.97;12251446;19;20258;-85
2023/05/22 15:24:27;;;;;;;;;;;30.50;29.40;;;29.65;32.02;101009.09;12252490;19;19911;-84
2023/05/22 15:28:29;;;;;;;;;;;30.50;31.40;;;29.70;31.62;101010.13;12253919;19;19939;-85
2023/05/22 15:32:31;;;;;;;;;;;30.40;29.10;;;29.64;31.74;100999.34;12256717;19;19919;-86
2023/05/22 15:36:35;;;;;;;;;;;30.40;31.50;;;29.67;31.86;100996.25;12263912;19;19915;-86
2023/05/22 15:40:37;;;;;;;;;;;30.40;31.60;;;29.68;31.63;100997.94;12259878;19;19919;-87
2023/05/22 15:44:38;;;;;;;;;;;30.40;30.80;;;29.62;31.69;100987.91;12263174;19;19928;-84
2023/05/22 15:48:40;;;;;;;;;;;30.40;29.70;;;29.60;31.88;100987.28;12265272;19;20296;-85
2023/05/22 15:52:41;;;;;;;;;;;30.30;30.10;;;29.52;31.69;100981.09;12266557;19;19922;-84
2023/05/22 15:56:42;;;;;;;;;;;30.30;29.70;;;29.54;31.81;100975.47;12260508;19;19990;-85
2023/05/22 16:00:44;;;;;;;;;;;30.20;31.00;;;29.54;31.39;100964.72;12262805;19;19926;-84
2023/05/22 16:04:45;;;;;;;;;;;30.20;30.40;;;29.40;31.45;100939.63;12261028;19;19936;-85
2023/05/22 16:08:47;;;;;;;;;;;30.20;30.40;;;29.51;31.28;100957.88;12262059;19;19942;-85
2023/05/22 16:12:48;;;;;;;;;;;30.20;31.60;;;29.38;31.19;100944.41;12264011;19;19941;-84
2023/05/22 16:16:50;;;;;;;;;;;30.20;30.30;;;29.44;31.35;100954.34;12258747;19;19931;-85
2023/05/22 16:20:51;;;;;;;;;;;30.10;30.80;;;29.36;31.22;100954.53;12262003;19;19970;-84
2023/05/22 16:24:53;;;;;;;;;;;30.10;31.50;;;29.32;31.18;100956.78;12262612;19;19922;-85
2023/05/22 16:28:54;;;;;;;;;;;30.00;31.20;;;29.17;31.04;100945.38;12259591;19;19986;-84
2023/05/22 16:33:00;;;;;;;;;;;29.90;31.00;;;29.13;31.23;100948.66;12254595;19;21430;-83
2023/05/22 16:37:01;;;;;;;;;;;29.90;31.30;;;28.93;30.94;100914.44;12261879;19;19918;-84
2023/05/22 16:41:03;;;;;;;;;;;29.80;30.90;;;29.08;31.47;100947.44;12263321;19;19914;-84
2023/05/22 16:45:05;;;;;;;;;;;29.80;31.20;;;29.07;31.38;100948.44;12260298;19;20338;-84
2023/05/22 16:49:06;;;;;;;;;;;29.70;31.20;;;29.02;31.23;100961.63;12265735;19;19936;-85
2023/05/22 16:53:09;;;;;;;;;;;29.70;31.00;;;29.02;30.85;100956.25;12264757;19;19915;-83
2023/05/22 16:57:10;;;;;;;;;;;29.60;30.70;;;28.95;31.13;100960.78;12261379;19;19915;-84
2023/05/22 17:01:11;;;;;;;;;;;29.60;31.80;;;28.85;31.21;100958.44;12262971;19;19926;-85
2023/05/22 17:05:13;;;;;;;;;;;29.60;31.40;;;28.70;30.67;100949.69;12259557;19;19914;-85
2023/05/22 17:09:14;;;;;;;;;;;29.50;30.10;;;28.58;31.09;100944.03;12266211;19;19915;-83
2023/05/22 17:13:19;;;;;;;;;;;29.40;30.30;;;28.60;31.35;100957.28;12264796;19;19974;-83
2023/05/22 17:17:20;;;;;;;;;;;29.30;30.60;;;28.51;30.73;100963.84;12261859;19;19927;-85
2023/05/22 17:21:23;;;;;;;;;;;29.20;31.00;;;28.37;30.98;100960.19;12256342;19;19922;-84
2023/05/22 17:25:24;;;;;;;;;;;29.10;30.50;;;28.35;30.78;100964.94;12253527;19;19922;-85
2023/05/22 17:29:25;;;;;;;;;;;29.00;31.40;;;28.29;30.79;100971.09;12256494;19;19911;-84
2023/05/22 17:33:27;;;;;;;;;;;29.00;31.40;;;28.27;30.90;100970.44;12255310;19;20353;-84
2023/05/22 17:37:28;;;;;;;;;;;28.80;30.30;;;28.19;31.20;100968.75;12254233;19;19911;-84
2023/05/22 17:41:29;;;;;;;;;;;28.80;31.00;;;28.17;30.94;100962.75;12255076;19;19918;-84
2023/05/22 17:45:31;;;;;;;;;;;28.80;30.90;;;28.11;31.27;100958.13;12257333;19;20022;-85
2023/05/22 17:49:32;;;;;;;;;;;28.70;31.60;;;28.01;31.22;100947.75;12263277;19;19919;-85
2023/05/22 17:53:33;;;;;;;;;;;28.60;31.00;;;27.87;31.12;100944.13;12261017;19;19915;-84
2023/05/22 17:57:35;;;;;;;;;;;28.60;31.20;;;27.79;30.97;100947.75;12258359;19;19926;-88
2023/05/22 18:01:36;;;;;;;;;;;28.40;30.60;;;27.70;30.76;100945.38;12258973;19;19971;-87
2023/05/22 18:05:38;;;;;;;;;;;28.40;31.10;;;27.56;30.61;100933.66;12256350;19;19918;-87
2023/05/22 18:09:39;;;;;;;;;;;28.30;31.50;;;27.60;30.55;100943.00;12259458;19;19922;-87
2023/05/22 18:13:41;;;;;;;;;;;28.20;31.60;;;27.45;30.91;100926.13;12258478;19;19911;-86
2023/05/22 18:17:42;;;;;;;;;;;28.10;31.60;;;27.12;30.51;100891.72;12258240;19;19949;-85
2023/05/22 18:21:43;;;;;;;;;;;28.00;31.30;;;27.31;30.94;100934.03;12256966;19;19915;-86
2023/05/22 18:25:45;;;;;;;;;;;27.90;31.60;;;27.26;30.88;100930.25;12255392;19;19919;-85
2023/05/22 18:29:47;;;;;;;;;;;27.90;31.40;;;27.17;30.84;100921.50;12252762;19;20282;-87
2023/05/22 18:33:48;;;;;;;;;;;27.80;31.50;;;26.82;30.97;100878.38;12255805;19;20330;-85
2023/05/22 18:37:50;;;;;;;;;;;27.80;31.80;;;27.00;30.99;100915.47;12258511;19;19911;-85
2023/05/22 18:41:52;;;;;;;;;;;27.60;31.70;;;26.87;31.14;100916.19;12255148;19;19919;-86
2023/05/22 18:45:55;;;;;;;;;;;27.50;31.70;;;26.85;31.22;100926.25;12252809;19;19923;-85